Coppock, Iowa
Current Conditions -  °F | °C
As of 8:15 AM on Tuesday 27 Jan 2015 (Local Time) from KAWG Reporting Station
Clear Clear  
Wind Chill: -4°   Ceiling: Unl
Heat Index:   Visibility: 10mi
Dew Point:   Wind: 7mph
Humidity: 100%   Direction: 350°N
Pressure: 30.13"   Gusts: NA
Location:  41.1406°N, 91.6635°W
Report Text: KAWG 271415Z AUTO 35006KT 10SM CLR 00/00 A3013 RMK AO2
Loading
Personal Weather Stations






























Interactive Weather Map New forecast layout! Learn more

10-Day Weather Forecast

Advertisements
Track Severe Weather on mobile